createdAt,value
2022-08-10T00:01:27.075Z,71.50
2022-08-10T00:04:24.715Z,68.70
2022-08-10T00:07:21.575Z,70.30
2022-08-10T00:10:22.267Z,68.80
2022-08-10T00:13:19.139Z,66.00
2022-08-10T00:16:16.019Z,71.40
2022-08-10T00:19:13.027Z,69.90
2022-08-10T00:22:17.109Z,68.90
2022-08-10T00:25:14.105Z,73.30
2022-08-10T00:28:11.135Z,68.10
2022-08-10T00:31:07.977Z,65.00
2022-08-10T00:34:04.852Z,66.50
2022-08-10T00:37:02.336Z,64.70
2022-08-10T00:39:59.353Z,65.60
2022-08-10T00:42:56.249Z,69.60
2022-08-10T00:45:59.191Z,72.50
2022-08-10T00:49:00.331Z,72.90
2022-08-10T00:51:57.721Z,69.10
2022-08-10T00:54:55.599Z,72.20
2022-08-10T00:57:55.288Z,67.20
2022-08-10T01:00:52.524Z,70.10
2022-08-10T01:04:36.554Z,73.80
2022-08-10T01:07:30.542Z,77.80
2022-08-10T01:10:49.423Z,72.90
2022-08-10T01:14:06.930Z,71.30
2022-08-10T01:17:13.122Z,76.00
2022-08-10T01:20:30.908Z,75.50
2022-08-10T01:23:54.593Z,70.90
2022-08-10T01:27:18.938Z,72.50
2022-08-10T01:30:20.896Z,76.40
2022-08-10T01:33:58.744Z,72.70
2022-08-10T01:36:59.838Z,74.10
2022-08-10T01:40:02.286Z,73.40
2022-08-10T01:43:08.562Z,76.00
2022-08-10T01:46:07.518Z,75.60
2022-08-10T01:49:11.550Z,78.10
2022-08-10T01:52:08.653Z,80.60
2022-08-10T01:55:16.915Z,79.80
2022-08-10T01:58:17.504Z,81.20
2022-08-10T02:01:19.852Z,83.40
2022-08-10T02:04:19.472Z,80.20
2022-08-10T02:07:21.483Z,81.40
2022-08-10T02:10:20.401Z,77.80
2022-08-10T02:13:19.047Z,79.80
2022-08-10T02:16:20.213Z,81.20
2022-08-10T02:19:22.266Z,83.40
2022-08-10T02:22:37.815Z,81.80
2022-08-10T02:25:42.525Z,77.30
2022-08-10T02:28:41.468Z,77.00
2022-08-10T02:31:39.357Z,81.90
2022-08-10T02:34:39.268Z,82.70
2022-08-10T02:37:41.666Z,81.80
2022-08-10T02:45:15.579Z,84.40
2022-08-10T02:45:15.945Z,81.10
2022-08-10T02:48:00.030Z,81.60
2022-08-10T02:51:06.675Z,85.20
2022-08-10T02:54:10.996Z,82.70
2022-08-10T02:57:27.384Z,82.00
2022-08-10T03:00:26.043Z,82.30
2022-08-10T03:03:31.700Z,88.40
2022-08-10T03:06:39.780Z,88.90
2022-08-10T03:09:40.201Z,87.90
2022-08-10T03:12:39.176Z,88.70
2022-08-10T03:15:39.349Z,90.10
2022-08-10T03:18:38.281Z,90.20
2022-08-10T03:21:36.927Z,91.50
2022-08-10T03:24:35.131Z,88.60
2022-08-10T03:27:32.255Z,91.00
2022-08-10T03:30:33.482Z,90.90
2022-08-10T03:33:36.838Z,91.30
2022-08-10T03:36:43.774Z,91.40
2022-08-10T03:39:41.848Z,92.60
2022-08-10T03:42:40.670Z,93.00
2022-08-10T03:45:54.185Z,92.80
2022-08-10T03:48:56.676Z,93.00
2022-08-10T03:51:55.286Z,92.60
2022-08-10T03:54:53.533Z,91.80
2022-08-10T03:57:50.924Z,91.80
2022-08-10T04:00:51.068Z,93.50
2022-08-10T04:03:47.993Z,90.90
2022-08-10T04:07:06.237Z,93.30
2022-08-10T04:10:03.309Z,91.90
2022-08-10T04:13:00.146Z,91.10
2022-08-10T04:15:58.882Z,90.00
2022-08-10T04:18:57.315Z,91.90
2022-08-10T04:22:20.956Z,88.70
2022-08-10T04:25:19.644Z,90.50
2022-08-10T04:28:16.739Z,91.90
2022-08-10T04:31:16.930Z,94.00
2022-08-10T04:34:15.766Z,91.50
2022-08-10T04:37:15.907Z,93.70
2022-08-10T04:40:25.302Z,93.90
2022-08-10T04:43:27.591Z,91.30
2022-08-10T04:46:56.005Z,88.50
2022-08-10T04:49:55.680Z,83.40
2022-08-10T04:52:53.863Z,90.20
2022-08-10T04:55:50.695Z,91.20
2022-08-10T04:58:47.548Z,90.80
2022-08-10T05:02:28.836Z,84.30
2022-08-10T05:05:01.236Z,90.80
2022-08-10T05:07:58.067Z,85.90
2022-08-10T05:10:54.921Z,89.30
2022-08-10T05:13:52.402Z,91.50
2022-08-10T05:16:49.250Z,91.40
2022-08-10T05:20:05.119Z,91.40
2022-08-10T05:23:03.381Z,88.60
2022-08-10T05:26:00.418Z,87.10
2022-08-10T05:28:58.560Z,79.50
2022-08-10T05:31:55.702Z,92.10
2022-08-10T05:34:52.544Z,84.00
2022-08-10T05:38:08.964Z,85.90
2022-08-10T05:41:09.049Z,82.30
2022-08-10T05:44:06.203Z,91.90
2022-08-10T05:47:07.607Z,83.60
2022-08-10T05:50:07.277Z,94.40
2022-08-10T05:53:58.955Z,82.40
2022-08-10T05:56:21.377Z,91.10
2022-08-10T06:00:34.972Z,93.70
2022-08-10T06:02:41.996Z,95.00
2022-08-10T06:05:41.285Z,95.10
2022-08-10T06:08:41.079Z,93.90
2022-08-10T06:12:28.356Z,92.20
2022-08-10T06:15:05.697Z,93.00
2022-08-10T06:18:07.137Z,90.10
2022-08-10T06:21:06.582Z,94.00
2022-08-10T06:24:05.339Z,93.10
2022-08-10T06:27:02.248Z,91.30
2022-08-10T06:30:00.962Z,91.50
2022-08-10T06:33:02.339Z,94.50
2022-08-10T06:36:01.111Z,92.70
2022-08-10T06:39:11.362Z,85.50
2022-08-10T06:42:29.817Z,89.40
2022-08-10T06:45:37.072Z,91.70
2022-08-10T06:48:41.441Z,92.20
2022-08-10T06:51:41.178Z,85.80
2022-08-10T06:54:40.585Z,76.20
2022-08-10T06:57:38.732Z,81.70
2022-08-10T07:00:40.105Z,75.00
2022-08-10T07:03:50.235Z,72.40
2022-08-10T07:06:48.557Z,79.30
2022-08-10T07:09:47.547Z,70.90
2022-08-10T07:12:47.542Z,70.10
2022-08-10T07:15:57.042Z,73.90
2022-08-10T07:19:00.160Z,68.50
2022-08-10T07:21:58.162Z,70.60
2022-08-10T07:24:57.695Z,70.40
2022-08-10T07:28:01.258Z,70.70
2022-08-10T07:30:59.803Z,68.80
2022-08-10T07:33:59.678Z,67.20
2022-08-10T07:37:02.801Z,66.30
2022-08-10T07:40:04.638Z,67.30
2022-08-10T07:43:03.136Z,65.20
2022-08-10T07:46:01.833Z,66.50
2022-08-10T07:49:16.787Z,70.30
2022-08-10T07:52:16.551Z,68.80
2022-08-10T07:55:17.095Z,67.60
2022-08-10T07:58:17.626Z,69.70
2022-08-10T08:01:18.950Z,67.60
2022-08-10T08:04:19.175Z,66.20
2022-08-10T08:07:21.401Z,66.20
2022-08-10T08:10:19.244Z,66.30
2022-08-10T08:13:20.360Z,65.00
2022-08-10T08:16:22.036Z,61.90
2022-08-10T08:19:26.526Z,67.20
2022-08-10T08:24:14.598Z,60.20
2022-08-10T08:25:45.255Z,61.60
2022-08-10T08:28:45.626Z,68.40
2022-08-10T08:32:01.147Z,63.00
2022-08-10T08:35:04.072Z,62.60
2022-08-10T08:38:29.762Z,62.60
2022-08-10T08:41:51.897Z,59.00
2022-08-10T08:45:50.982Z,61.70
2022-08-10T08:50:08.803Z,63.60
2022-08-10T08:54:01.558Z,62.50
2022-08-10T08:57:49.715Z,57.80
2022-08-10T09:00:56.566Z,59.30
2022-08-10T09:04:58.001Z,57.30
2022-08-10T09:08:35.224Z,58.40
2022-08-10T09:12:13.339Z,58.30
2022-08-10T09:15:39.334Z,56.30
2022-08-10T09:19:10.146Z,55.10
2022-08-10T09:22:57.763Z,55.10
2022-08-10T09:26:19.259Z,53.50
2022-08-10T09:29:33.104Z,54.30
2022-08-10T09:35:43.279Z,57.00
2022-08-10T09:36:32.500Z,56.00
2022-08-10T09:40:56.954Z,56.40
2022-08-10T09:43:27.782Z,53.50
2022-08-10T09:47:18.887Z,54.30
2022-08-10T09:51:41.670Z,51.50
2022-08-10T09:54:54.161Z,52.00
2022-08-10T09:58:12.196Z,51.60
2022-08-10T10:01:58.253Z,52.50
2022-08-10T10:05:50.323Z,52.40
2022-08-10T10:09:12.092Z,50.40
2022-08-10T10:12:52.984Z,50.40
2022-08-10T10:16:17.357Z,52.30
2022-08-10T10:19:51.511Z,50.90
2022-08-10T10:23:22.660Z,52.30
2022-08-10T10:26:43.806Z,50.60
2022-08-10T10:30:06.470Z,51.70
2022-08-10T10:33:15.015Z,51.30
2022-08-10T10:36:16.133Z,52.80
2022-08-10T10:39:15.484Z,50.60
2022-08-10T10:42:46.895Z,50.10
2022-08-10T10:46:30.165Z,50.50
2022-08-10T10:50:03.269Z,51.80
2022-08-10T10:53:30.742Z,48.00
2022-08-10T10:57:01.622Z,47.50
2022-08-10T11:00:10.140Z,48.70
2022-08-10T11:03:48.133Z,48.50
2022-08-10T11:07:23.785Z,49.30
2022-08-10T11:10:46.838Z,46.30
2022-08-10T11:14:28.535Z,45.50
2022-08-10T11:17:38.893Z,47.30
2022-08-10T11:21:13.741Z,44.20
2022-08-10T11:25:01.411Z,43.20
2022-08-10T11:28:21.788Z,44.60
2022-08-10T11:31:39.915Z,44.80
2022-08-10T11:35:11.931Z,43.40
2022-08-10T11:39:12.836Z,44.90
2022-08-10T11:42:43.284Z,44.30
2022-08-10T11:45:52.175Z,41.50
2022-08-10T11:49:22.540Z,43.10
2022-08-10T11:53:10.979Z,47.60
2022-08-10T11:56:17.384Z,45.30
2022-08-10T11:59:36.112Z,43.80
2022-08-10T12:03:02.992Z,45.00
2022-08-10T12:06:01.873Z,45.30
2022-08-10T12:10:05.551Z,42.90
2022-08-10T12:12:18.056Z,45.70
2022-08-10T12:15:27.664Z,43.90
2022-08-10T12:18:36.521Z,45.10
2022-08-10T12:21:45.727Z,42.90
2022-08-10T12:25:00.899Z,42.00
2022-08-10T12:28:09.112Z,42.60
2022-08-10T12:31:10.310Z,42.80
2022-08-10T12:34:58.935Z,42.70
2022-08-10T12:38:33.840Z,41.20
2022-08-10T12:42:10.280Z,40.40
2022-08-10T12:45:36.004Z,43.50
2022-08-10T12:49:06.933Z,41.50
2022-08-10T12:52:29.101Z,41.70
2022-08-10T12:55:27.983Z,42.00
2022-08-10T12:58:59.659Z,41.60
2022-08-10T13:02:06.218Z,42.20
2022-08-10T13:05:11.155Z,40.30
2022-08-10T13:08:28.209Z,41.50
2022-08-10T13:12:36.740Z,41.70
2022-08-10T13:14:45.652Z,41.10
2022-08-10T13:17:49.733Z,41.30
2022-08-10T13:20:53.371Z,42.00
2022-08-10T13:24:04.712Z,40.70
2022-08-10T13:27:26.309Z,42.90
2022-08-10T13:30:33.858Z,44.20
2022-08-10T13:34:40.999Z,42.00
2022-08-10T13:37:01.348Z,41.90
2022-08-10T13:40:01.804Z,42.00
2022-08-10T13:43:02.451Z,42.10
2022-08-10T13:45:59.595Z,40.40
2022-08-10T13:48:59.770Z,41.50
2022-08-10T13:51:58.624Z,40.70
2022-08-10T13:54:58.905Z,42.60
2022-08-10T13:58:01.236Z,42.40
2022-08-10T14:01:01.768Z,42.60
2022-08-10T14:04:01.776Z,43.10
2022-08-10T14:07:01.021Z,42.30
2022-08-10T14:10:07.268Z,43.20
2022-08-10T14:13:06.112Z,42.00
2022-08-10T14:16:07.277Z,41.20
2022-08-10T14:19:10.285Z,41.00
2022-08-10T14:22:07.201Z,40.30
2022-08-10T14:25:12.723Z,40.90
2022-08-10T14:28:10.151Z,42.00
2022-08-10T14:31:12.992Z,40.50
2022-08-10T14:34:12.564Z,42.10
2022-08-10T14:37:19.477Z,42.40
2022-08-10T14:40:21.031Z,42.30
2022-08-10T14:43:28.607Z,41.00
2022-08-10T14:46:28.713Z,41.30
2022-08-10T14:49:28.396Z,42.50
2022-08-10T14:52:27.327Z,41.70
2022-08-10T14:55:24.941Z,40.30
2022-08-10T14:58:39.523Z,42.10
2022-08-10T15:02:38.389Z,41.20
2022-08-10T15:05:22.602Z,42.10
2022-08-10T15:08:25.519Z,40.80
2022-08-10T15:12:11.723Z,44.10
2022-08-10T15:14:45.693Z,44.30
2022-08-10T15:17:57.919Z,43.30
2022-08-10T15:20:59.451Z,41.20
2022-08-10T15:24:05.090Z,41.40
2022-08-10T15:27:08.525Z,41.10
2022-08-10T15:30:09.692Z,41.70
2022-08-10T15:34:02.122Z,41.00
2022-08-10T15:37:40.536Z,40.80
2022-08-10T15:40:31.365Z,40.40
2022-08-10T15:43:34.390Z,42.00
2022-08-10T15:46:49.513Z,41.20
2022-08-10T15:50:05.503Z,42.10
2022-08-10T15:53:29.653Z,41.90
2022-08-10T15:56:59.880Z,42.80
2022-08-10T16:00:11.108Z,41.60
2022-08-10T16:03:17.182Z,40.40
2022-08-10T16:06:38.201Z,41.80
2022-08-10T16:10:24.453Z,40.30
2022-08-10T16:13:59.658Z,40.00
2022-08-10T16:16:31.430Z,41.90
2022-08-10T16:19:30.217Z,43.20
2022-08-10T16:22:37.172Z,41.30
2022-08-10T16:25:48.445Z,40.20
2022-08-10T16:29:01.707Z,41.90
2022-08-10T16:32:04.238Z,40.90
2022-08-10T16:35:04.591Z,42.10
2022-08-10T16:38:12.983Z,41.40
2022-08-10T16:42:00.223Z,41.40
2022-08-10T16:44:41.713Z,44.10
2022-08-10T16:47:48.199Z,42.10
2022-08-10T16:50:59.101Z,42.70
2022-08-10T16:54:00.713Z,44.30
2022-08-10T16:57:03.534Z,41.90
2022-08-10T17:00:00.554Z,44.30
2022-08-10T17:03:22.896Z,41.70
2022-08-10T17:06:51.396Z,43.30
2022-08-10T17:09:54.192Z,44.50
2022-08-10T17:12:54.643Z,44.00
2022-08-10T17:16:00.667Z,42.90
2022-08-10T17:18:58.066Z,43.60
2022-08-10T17:22:02.264Z,42.40
2022-08-10T17:25:17.593Z,42.60
2022-08-10T17:28:34.660Z,45.90
2022-08-10T17:31:53.375Z,45.60
2022-08-10T17:34:57.844Z,42.40
2022-08-10T17:38:06.459Z,43.80
2022-08-10T17:41:13.072Z,44.20
2022-08-10T17:44:11.170Z,45.00
2022-08-10T17:47:11.281Z,46.10
2022-08-10T17:50:09.500Z,44.50
2022-08-10T17:53:16.095Z,44.70
2022-08-10T17:56:14.228Z,43.80
2022-08-10T17:59:17.299Z,44.50
2022-08-10T18:02:27.317Z,45.90
2022-08-10T18:05:24.546Z,45.20
2022-08-10T18:08:23.978Z,44.90
2022-08-10T18:11:32.408Z,46.00
2022-08-10T18:14:33.837Z,48.00
2022-08-10T18:17:39.588Z,48.70
2022-08-10T18:20:39.817Z,50.20
2022-08-10T18:23:40.340Z,50.60
2022-08-10T18:26:41.135Z,51.80
2022-08-10T18:29:42.180Z,51.50
2022-08-10T18:32:40.870Z,51.90
2022-08-10T18:35:38.666Z,52.50
2022-08-10T18:38:40.022Z,53.20
2022-08-10T18:42:00.469Z,53.10
2022-08-10T18:45:11.447Z,53.40
2022-08-10T18:48:16.231Z,54.60
2022-08-10T18:51:14.290Z,55.40
2022-08-10T18:54:39.612Z,55.60
2022-08-10T18:57:55.940Z,56.10
2022-08-10T19:01:17.612Z,56.00
2022-08-10T19:05:30.079Z,54.40
2022-08-10T19:09:08.629Z,56.90
2022-08-10T19:13:00.507Z,56.40
2022-08-10T19:16:15.106Z,56.00
2022-08-10T19:19:55.786Z,57.30
2022-08-10T19:23:33.548Z,56.60
2022-08-10T19:26:49.159Z,58.30
2022-08-10T19:30:10.780Z,58.30
2022-08-10T19:34:11.466Z,56.90
2022-08-10T19:37:32.759Z,58.10
2022-08-10T19:40:51.445Z,57.60
2022-08-10T19:44:03.185Z,58.30
2022-08-10T19:47:20.541Z,55.80
2022-08-10T19:50:44.998Z,58.40
2022-08-10T19:54:04.883Z,58.30
2022-08-10T19:57:16.259Z,56.80
2022-08-10T20:00:19.153Z,56.40
2022-08-10T20:03:37.531Z,58.00
2022-08-10T20:06:44.196Z,56.70
2022-08-10T20:10:00.502Z,58.50
2022-08-10T20:13:12.201Z,57.10
2022-08-10T20:16:26.504Z,57.50
2022-08-10T20:20:06.857Z,58.10
2022-08-10T20:23:35.348Z,58.80
2022-08-10T20:26:41.804Z,56.70
2022-08-10T20:29:58.478Z,55.40
2022-08-10T20:33:07.818Z,57.00
2022-08-10T20:36:23.531Z,57.40
2022-08-10T20:39:40.383Z,57.00
2022-08-10T20:43:07.006Z,56.70
2022-08-10T20:46:27.741Z,54.90
2022-08-10T20:50:01.949Z,59.10
2022-08-10T20:53:06.185Z,57.20
2022-08-10T20:56:13.104Z,58.00
2022-08-10T21:00:02.408Z,57.30
2022-08-10T21:03:34.202Z,59.50
2022-08-10T21:07:05.525Z,59.70
2022-08-10T21:10:48.051Z,62.70
2022-08-10T21:14:11.572Z,61.40
2022-08-10T21:17:45.918Z,55.60
2022-08-10T21:21:16.593Z,58.80
2022-08-10T21:24:32.683Z,55.00
2022-08-10T21:28:10.042Z,58.10
2022-08-10T21:31:45.081Z,55.20
2022-08-10T21:35:02.303Z,59.80
2022-08-10T21:38:21.401Z,60.70
2022-08-10T21:42:14.685Z,60.90
2022-08-10T21:46:00.335Z,57.40
2022-08-10T21:49:37.069Z,56.40
2022-08-10T21:53:03.002Z,56.90
2022-08-10T21:56:37.155Z,59.00
2022-08-10T22:00:04.948Z,58.80
2022-08-10T22:03:27.359Z,56.90
2022-08-10T22:07:00.804Z,55.10
2022-08-10T22:10:16.788Z,61.40
2022-08-10T22:13:36.320Z,58.90
2022-08-10T22:18:03.679Z,61.00
2022-08-10T22:20:52.254Z,57.80
2022-08-10T22:24:42.546Z,59.40
2022-08-10T22:28:02.008Z,61.50
2022-08-10T22:35:34.496Z,56.00
2022-08-10T22:40:11.971Z,59.70
2022-08-10T22:43:10.849Z,58.20
2022-08-10T22:46:38.761Z,58.20
2022-08-10T22:49:35.622Z,59.50
2022-08-10T22:52:57.345Z,63.00
2022-08-10T22:56:15.635Z,59.80
2022-08-10T22:59:12.990Z,63.10
2022-08-10T23:02:12.222Z,58.60
2022-08-10T23:05:14.453Z,65.70
2022-08-10T23:08:29.607Z,58.80
2022-08-10T23:11:39.120Z,65.30
2022-08-10T23:14:40.596Z,65.00
2022-08-10T23:18:01.125Z,60.30
2022-08-10T23:21:00.952Z,67.20
2022-08-10T23:23:59.539Z,63.20
2022-08-10T23:26:59.331Z,64.70
2022-08-10T23:30:17.058Z,66.30
2022-08-10T23:33:17.475Z,67.50
2022-08-10T23:36:39.045Z,62.00
2022-08-10T23:39:43.531Z,71.00
2022-08-10T23:42:47.423Z,61.40
2022-08-10T23:45:54.439Z,70.30
2022-08-10T23:48:56.270Z,65.70
2022-08-10T23:51:54.937Z,60.50
2022-08-10T23:54:59.369Z,68.00
2022-08-10T23:58:08.861Z,64.70
